LiveATC.Net - Listen to live air traffic control over the Internet!


ICAO: ZYCY  IATA: CHG   Airport: Chaoyang Airport
City: Chaoyang
Country: China   Continent: Asia
ZYCY METAR Weather: ZYCY 140700Z 25002MPS CAVOK 29/16 Q1006 NOSIG
ZYCY Flight Activity (FlightAware)

ZYCY Tower
Feed Status: DOWN
Last heard on: 2019-09-08 02:44:06 (10 days 22 hours 32 minutes ago)
ZYCY Tower Audio Archives
FacilityFrequency
Chaoyang Tower118.350

NOTICE

Unauthorized use prohibited. See LiveATC.net Terms of Service


Airport/ARTCC Code
Frequency Search
(e.g., 124.400, 128.75)
Site-wide search
 


Browse LiveATC Feeds
Top 50 LiveATC Feeds
LiveATC Feed Map
Bad Weather Areas

LiveATC FAQ
Offer LiveATC feed
Contact LiveATC.net
Press Inquiries

LiveATC on iPhone
LiveATC on Android

Windows Phone
Windows 8/10

LiveATC Mobile
(Mobile browser)

ATC Audio Archives
Interesting Recordings

LiveATC Forums


Home Page
About LiveATC.net
Make a Donation
Terms of Use
Privacy Policy

Canadian Air Freqs

AIRMETs/SIGMETs

FAA Airport Status
Nat'l Airspace Status
Arrival Demand Charts


Server Software By:
Icecast.org
Liquidsoap